EGNX

East Midlands Airport

Nottingham, United Kingdom
METAR EGNX 191950Z 22011KT 9999 FEW027 BKN044 20/15 Q1020
Observed Flight Rules
Jun-19 @ 19:50 UTC (27 minutes ago) Visual Flight Rules
Wind Visibility Clouds
220° at 11 knots 10,000+ meters
  • Few at 2,700' AGL
  • Broken at 4,400' AGL
Temperatures Readings
Current 20°C / 68°F
Dewpoint 15°C / 59°F
Humidity 73%
Altimeter 30.12" Hg
Pressure 1020 hPa
Elevation 94
METAR EGNX 191950Z 22011KT 9999 FEW027 BKN044 20/15 Q1020
Observed Flight Rules
Jun-19 @ 19:50 UTC
(27 minutes ago)
VFR
Wind Visibility
220° at 11 knots 10,000+ meters
Clouds
  • Few at 2,700' AGL
  • Broken at 4,400' AGL
Temperature Dewpoint
20°C / 68°F 15°C / 59°F
Humidity Altimeter Pressure
73% 30.12" Hg 1020 hPa